Time;durP1;ratioP1;P1;durP2;ratioP2;P2;SDS_P1;SDS_P2;PMS_P1;PMS_P2;Temp;Humidity;BMP_temperature;BMP_pressure;BME280_temperature;BME280_humidity;BME280_pressure;Samples;Min_cycle;Max_cycle;Signal;HPM_P1;HPM_P2
2022/02/21 00:00:56;;;;;;;2.97;1.80;;;;;;;10.23;91.46;98271.34;5003968;28;20289;-71
2022/02/21 00:03:21;;;;;;;5.77;2.30;;;;;;;10.18;92.63;98296.16;4989812;28;20302;-71
2022/02/21 00:05:51;;;;;;;6.20;2.40;;;;;;;10.08;93.14;98294.66;4990812;28;20692;-71
2022/02/21 00:08:17;;;;;;;5.27;2.37;;;;;;;10.08;93.24;98299.75;4997613;28;20286;-71
2022/02/21 00:10:42;;;;;;;6.93;2.40;;;;;;;9.96;95.61;98336.59;5012729;28;20306;-71
2022/02/21 00:13:08;;;;;;;10.13;3.20;;;;;;;9.78;97.80;98341.22;5010122;28;20190;-72
2022/02/21 00:15:33;;;;;;;12.30;4.73;;;;;;;9.58;99.84;98373.94;4993813;28;20195;-71
2022/02/21 00:17:59;;;;;;;3.83;2.20;;;;;;;9.32;100.00;98376.06;4995254;28;20670;-71
2022/02/21 00:20:25;;;;;;;3.43;1.20;;;;;;;8.98;98.11;98395.31;4975819;28;20207;-71
2022/02/21 00:22:50;;;;;;;2.57;0.90;;;;;;;8.89;94.82;98387.78;4994402;28;20216;-71
2022/02/21 00:25:15;;;;;;;3.33;0.90;;;;;;;8.89;93.69;98403.91;5012824;28;20197;-71
2022/02/21 00:27:41;;;;;;;1.10;0.70;;;;;;;8.73;92.35;98411.78;5004075;28;20569;-71
2022/02/21 00:30:07;;;;;;;3.47;0.80;;;;;;;8.68;92.50;98419.50;4991806;28;20207;-72
2022/02/21 00:32:33;;;;;;;2.77;0.80;;;;;;;8.59;91.01;98444.28;4991929;28;20191;-71
2022/02/21 00:34:58;;;;;;;2.07;0.57;;;;;;;8.55;90.56;98463.00;5006555;28;20191;-71
2022/02/21 00:37:24;;;;;;;2.23;0.63;;;;;;;8.45;91.34;98472.50;4992918;28;20180;-71
2022/02/21 00:39:49;;;;;;;2.77;0.77;;;;;;;8.40;92.21;98470.84;5010001;28;20191;-71
2022/02/21 00:42:16;;;;;;;4.20;1.20;;;;;;;8.22;92.22;98464.22;5011642;28;20250;-71
2022/02/21 00:44:42;;;;;;;2.57;0.90;;;;;;;8.11;93.00;98454.97;4997040;28;20190;-71
2022/02/21 00:47:07;;;;;;;3.57;1.00;;;;;;;7.99;92.96;98468.66;5005037;28;20710;-71
2022/02/21 00:49:33;;;;;;;1.57;1.00;;;;;;;7.97;93.49;98459.34;5003091;28;20693;-72
2022/02/21 00:51:58;;;;;;;5.43;1.10;;;;;;;7.89;94.65;98464.53;4999223;28;20581;-71
2022/02/21 00:54:27;;;;;;;4.93;1.17;;;;;;;7.87;95.18;98489.13;4993056;28;20318;-72
2022/02/21 00:56:53;;;;;;;3.77;0.93;;;;;;;7.80;94.19;98468.84;4992482;28;20192;-71
2022/02/21 00:59:18;;;;;;;2.93;0.87;;;;;;;7.77;92.47;98514.69;5006747;28;20556;-72
2022/02/21 01:01:44;;;;;;;2.70;0.60;;;;;;;7.77;93.24;98514.69;5009738;28;20727;-71
2022/02/21 01:04:09;;;;;;;2.83;0.63;;;;;;;7.62;90.30;98525.84;5011484;28;20183;-72
2022/02/21 01:06:35;;;;;;;1.17;0.50;;;;;;;7.58;89.52;98518.22;5005957;28;20869;-72
2022/02/21 01:09:00;;;;;;;1.20;0.60;;;;;;;7.55;90.31;98508.91;4992290;28;20231;-71
2022/02/21 01:11:30;;;;;;;0.73;0.50;;;;;;;7.42;91.11;98512.38;4993369;28;20210;-72
2022/02/21 01:13:56;;;;;;;2.07;0.53;;;;;;;7.41;91.20;98533.59;4996654;28;20662;-71
2022/02/21 01:16:21;;;;;;;2.30;0.60;;;;;;;7.32;91.54;98526.03;4991203;28;20175;-71
2022/02/21 01:18:46;;;;;;;1.10;0.57;;;;;;;7.32;92.70;98532.81;4991186;28;20231;-71
2022/02/21 01:21:12;;;;;;;2.20;0.57;;;;;;;7.24;92.55;98543.00;5010120;28;20230;-72
2022/02/21 01:23:40;;;;;;;3.27;0.60;;;;;;;7.21;91.94;98534.56;5010769;28;20182;-72
2022/02/21 01:26:05;;;;;;;2.90;0.93;;;;;;;7.15;91.73;98516.78;5010535;28;20186;-72
2022/02/21 01:28:31;;;;;;;1.33;0.53;;;;;;;7.08;91.74;98526.16;4994010;28;20230;-72
2022/02/21 01:30:56;;;;;;;0.97;0.50;;;;;;;7.06;92.54;98539.72;4992414;28;20713;-72
2022/02/21 01:33:21;;;;;;;3.03;0.60;;;;;;;7.06;91.06;98522.78;5003650;28;20202;-71
2022/02/21 01:35:47;;;;;;;1.50;0.40;;;;;;;7.03;91.67;98545.66;5008566;28;20229;-72
2022/02/21 01:38:12;;;;;;;1.17;0.60;;;;;;;7.00;91.23;98545.66;5009584;28;20198;-71
2022/02/21 01:40:38;;;;;;;1.87;0.50;;;;;;;7.01;91.08;98555.00;5011184;28;20299;-71
2022/02/21 01:43:03;;;;;;;0.50;0.50;;;;;;;7.01;90.85;98554.16;5010510;28;20222;-72
2022/02/21 01:45:29;;;;;;;1.67;0.70;;;;;;;6.96;91.57;98566.88;5010144;28;20273;-73
2022/02/21 01:47:54;;;;;;;1.00;0.63;;;;;;;6.94;92.80;98539.75;4996348;28;20209;-72
2022/02/21 01:50:19;;;;;;;2.57;0.70;;;;;;;6.89;92.73;98556.75;5007193;28;20215;-73
2022/02/21 01:52:46;;;;;;;1.73;0.60;;;;;;;6.86;92.29;98587.28;5011177;28;20233;-71
2022/02/21 01:55:12;;;;;;;1.67;0.60;;;;;;;6.82;93.33;98583.88;5011204;28;20187;-72
2022/02/21 01:57:37;;;;;;;1.17;0.70;;;;;;;6.71;93.34;98583.06;5011048;28;20621;-72
2022/02/21 02:00:04;;;;;;;1.80;0.60;;;;;;;6.68;93.79;98594.97;5010503;28;20238;-72
2022/02/21 02:02:43;;;;;;;1.57;0.53;;;;;;;6.69;94.47;98586.47;5006749;28;20207;-71
2022/02/21 02:05:09;;;;;;;1.53;0.80;;;;;;;6.66;94.34;98610.22;5010068;28;20223;-72
2022/02/21 02:07:35;;;;;;;3.23;0.70;;;;;;;6.64;93.50;98614.44;5010834;28;20295;-71
2022/02/21 02:10:01;;;;;;;2.23;0.80;;;;;;;6.65;93.76;98612.75;4994872;28;20284;-72
2022/02/21 02:12:26;;;;;;;2.37;0.77;;;;;;;6.66;93.65;98628.00;4990065;28;20176;-72
2022/02/21 02:14:51;;;;;;;2.20;0.60;;;;;;;6.63;93.11;98647.50;5005705;28;20198;-72
2022/02/21 02:17:17;;;;;;;2.03;0.70;;;;;;;6.61;93.19;98654.28;5009058;28;20646;-72
2022/02/21 02:19:45;;;;;;;3.17;0.70;;;;;;;6.46;94.23;98662.75;5009983;28;20199;-72
2022/02/21 02:22:14;;;;;;;0.47;0.40;;;;;;;6.37;93.75;98695.81;5008926;28;20211;-72
2022/02/21 02:24:42;;;;;;;1.93;0.63;;;;;;;6.13;93.45;98700.81;5010398;28;20202;-72
2022/02/21 02:27:10;;;;;;;1.70;0.60;;;;;;;6.03;92.45;98681.31;4995718;28;20191;-71
2022/02/21 02:29:40;;;;;;;2.27;0.60;;;;;;;6.00;91.32;98670.31;5001261;28;20196;-72
2022/02/21 02:32:06;;;;;;;4.00;0.90;;;;;;;6.00;91.19;98683.88;5010245;28;20201;-72
2022/02/21 02:34:32;;;;;;;3.63;0.70;;;;;;;5.98;89.21;98683.00;5002814;28;20180;-71
2022/02/21 02:36:58;;;;;;;6.20;1.03;;;;;;;5.87;89.72;98673.66;5001896;28;20191;-71
2022/02/21 02:39:25;;;;;;;4.00;1.10;;;;;;;5.85;89.43;98698.22;5008410;28;20195;-72
2022/02/21 02:41:51;;;;;;;5.23;1.10;;;;;;;5.86;89.49;98687.22;5009033;28;20254;-72
2022/02/21 02:44:17;;;;;;;8.70;1.37;;;;;;;5.86;89.18;98690.63;5005939;28;20213;-71
2022/02/21 02:46:42;;;;;;;3.37;1.00;;;;;;;5.85;88.44;98698.22;5007941;28;20191;-72
2022/02/21 02:49:07;;;;;;;5.80;1.10;;;;;;;5.86;89.14;98697.38;5010274;28;20183;-71
2022/02/21 02:51:33;;;;;;;5.73;1.10;;;;;;;5.84;90.00;98707.53;4992439;28;20552;-72
2022/02/21 02:53:59;;;;;;;7.03;1.00;;;;;;;5.84;89.63;98696.53;4996432;28;20265;-72
2022/02/21 02:56:24;;;;;;;4.10;1.23;;;;;;;5.77;89.39;98703.25;5008938;28;20202;-71
2022/02/21 02:58:49;;;;;;;8.10;1.57;;;;;;;5.75;90.26;98715.06;5009843;28;20600;-71
2022/02/21 03:01:15;;;;;;;7.33;1.03;;;;;;;5.74;89.92;98717.59;5009970;28;20210;-72
2022/02/21 03:03:40;;;;;;;5.83;1.60;;;;;;;5.74;90.00;98718.47;5008420;28;20222;-71
2022/02/21 03:06:05;;;;;;;14.47;1.80;;;;;;;5.74;89.41;98723.53;5009764;28;20183;-71
2022/02/21 03:08:30;;;;;;;12.23;2.10;;;;;;;5.79;89.72;98726.94;5007563;28;20233;-71
2022/02/21 03:10:56;;;;;;;9.73;2.17;;;;;;;5.77;89.87;98731.19;4990258;28;20204;-72
2022/02/21 03:13:21;;;;;;;12.17;2.33;;;;;;;5.79;89.03;98726.94;4989639;28;20196;-71
2022/02/21 03:15:47;;;;;;;10.47;2.50;;;;;;;5.79;89.12;98719.31;4991111;28;20192;-71
2022/02/21 03:18:12;;;;;;;9.47;2.70;;;;;;;5.80;88.96;98736.28;4996173;28;20210;-72
2022/02/21 03:20:37;;;;;;;12.40;2.20;;;;;;;5.71;88.21;98746.34;4999034;28;20822;-72
2022/02/21 03:23:03;;;;;;;10.27;1.67;;;;;;;5.62;88.41;98778.47;5000538;28;20277;-72
2022/02/21 03:25:28;;;;;;;7.03;1.47;;;;;;;5.45;89.31;98768.25;5009443;28;20194;-71
2022/02/21 03:27:54;;;;;;;12.30;2.47;;;;;;;5.32;89.36;98758.84;5009708;28;20697;-71
2022/02/21 03:30:19;;;;;;;11.00;2.57;;;;;;;5.24;89.76;98763.03;5007752;28;20215;-71
2022/02/21 03:32:44;;;;;;;10.90;2.67;;;;;;;5.21;90.27;98800.22;4991166;28;20192;-71
2022/02/21 03:35:10;;;;;;;11.80;2.73;;;;;;;5.20;90.69;98790.91;5004727;28;20195;-71
2022/02/21 03:37:36;;;;;;;14.60;3.13;;;;;;;5.09;91.56;98811.09;5001909;28;20187;-71
2022/02/21 03:40:06;;;;;;;10.60;2.70;;;;;;;5.08;92.25;98827.16;4988583;28;20269;-72
2022/02/21 03:42:32;;;;;;;13.23;2.50;;;;;;;5.07;92.07;98830.50;5022350;28;20233;-71
2022/02/21 03:44:58;;;;;;;10.97;2.30;;;;;;;5.01;92.50;98830.47;5000000;28;20219;-72
2022/02/21 03:47:24;;;;;;;12.67;2.33;;;;;;;5.02;91.92;98819.50;4993917;28;20570;-71
2022/02/21 03:49:49;;;;;;;17.27;2.60;;;;;;;4.99;90.98;98836.38;5004528;28;20257;-72
2022/02/21 03:52:14;;;;;;;11.83;2.27;;;;;;;5.04;89.01;98809.38;5011569;28;20183;-72
2022/02/21 03:54:40;;;;;;;13.87;2.97;;;;;;;5.11;88.31;98852.53;5003701;28;20266;-72
2022/02/21 03:57:05;;;;;;;15.23;3.23;;;;;;;5.13;86.66;98855.94;5004736;28;20206;-71
2022/02/21 03:59:30;;;;;;;14.87;2.77;;;;;;;5.16;86.62;98852.59;5010092;28;20187;-71
2022/02/21 04:01:56;;;;;;;8.70;2.60;;;;;;;5.14;86.24;98855.09;5013424;28;20238;-72
2022/02/21 04:04:21;;;;;;;12.63;2.67;;;;;;;5.10;86.06;98855.06;5013179;28;20211;-71
2022/02/21 04:06:47;;;;;;;19.07;3.77;;;;;;;5.07;86.38;98867.72;5013251;28;20183;-72
2022/02/21 04:09:12;;;;;;;18.00;2.70;;;;;;;5.01;86.67;98873.59;5010321;28;20573;-72
2022/02/21 04:11:38;;;;;;;10.87;2.30;;;;;;;5.00;87.59;98876.09;5012903;28;20759;-71
2022/02/21 04:14:04;;;;;;;15.07;4.00;;;;;;;4.97;87.73;98860.88;5010647;28;20180;-72
2022/02/21 04:16:32;;;;;;;19.57;4.03;;;;;;;4.98;86.78;98878.63;4993613;28;20198;-72
2022/02/21 04:19:04;;;;;;;26.63;3.40;;;;;;;4.96;87.42;98871.84;4996129;28;20284;-72
2022/02/21 04:21:30;;;;;;;18.33;4.43;;;;;;;4.96;86.75;98876.91;5005151;28;20227;-72
2022/02/21 04:23:56;;;;;;;18.50;3.83;;;;;;;4.97;87.04;98881.16;5005554;28;20278;-72
2022/02/21 04:26:21;;;;;;;19.53;4.27;;;;;;;5.01;85.92;98882.91;5012717;28;20209;-72
2022/02/21 04:28:47;;;;;;;17.93;3.43;;;;;;;5.03;86.05;98879.53;5010995;28;20725;-72
2022/02/21 04:31:14;;;;;;;19.60;3.77;;;;;;;5.05;84.50;98880.38;5006815;28;20671;-72
2022/02/21 04:33:40;;;;;;;18.23;4.03;;;;;;;5.12;84.16;98884.69;4994887;28;20196;-72
2022/02/21 04:36:06;;;;;;;17.53;4.10;;;;;;;4.94;85.65;98919.16;5012153;28;20211;-71
2022/02/21 04:38:31;;;;;;;16.13;3.23;;;;;;;4.72;88.68;98919.75;5011929;28;20195;-72
2022/02/21 04:40:56;;;;;;;13.03;2.80;;;;;;;4.64;88.92;98917.13;5012240;28;20214;-72
2022/02/21 04:43:22;;;;;;;11.63;3.63;;;;;;;4.61;88.91;98927.22;5007873;28;20607;-72
2022/02/21 04:45:53;;;;;;;9.80;2.73;;;;;;;4.67;88.45;98929.00;5000887;28;20202;-71
2022/02/21 04:48:19;;;;;;;14.67;3.30;;;;;;;4.62;88.72;98911.22;4992919;28;20176;-72
2022/02/21 04:50:44;;;;;;;15.53;3.03;;;;;;;4.61;88.31;98906.13;4992811;28;20294;-72
2022/02/21 04:53:10;;;;;;;18.40;3.50;;;;;;;4.62;87.81;98916.28;5008165;28;20206;-72
2022/02/21 04:55:35;;;;;;;18.00;4.47;;;;;;;4.62;87.26;98923.03;4998003;28;20202;-72
2022/02/21 04:58:00;;;;;;;12.30;3.80;;;;;;;4.55;87.63;98923.81;5010676;28;20215;-72
2022/02/21 05:00:26;;;;;;;17.20;3.03;;;;;;;4.56;87.55;98931.38;5001198;28;20255;-72
2022/02/21 05:02:51;;;;;;;18.80;3.53;;;;;;;4.59;87.86;98940.72;5011833;28;20249;-72
2022/02/21 05:05:16;;;;;;;16.97;4.20;;;;;;;4.61;87.71;98927.22;5012071;28;20190;-72
2022/02/21 05:07:43;;;;;;;14.73;3.63;;;;;;;4.63;88.00;98934.84;5012120;28;20183;-72
2022/02/21 05:10:08;;;;;;;17.17;4.00;;;;;;;4.63;88.26;98932.31;4996928;28;20585;-72
2022/02/21 05:12:34;;;;;;;12.53;3.30;;;;;;;4.59;87.38;98933.13;5007234;28;20187;-72
2022/02/21 05:14:59;;;;;;;17.60;4.00;;;;;;;4.53;87.63;98938.97;5010801;28;20187;-72
2022/02/21 05:17:25;;;;;;;16.07;4.43;;;;;;;4.57;86.90;98950.00;5011537;28;20198;-72
2022/02/21 05:19:50;;;;;;;16.73;3.13;;;;;;;4.59;87.25;98953.38;5007593;28;20189;-72
2022/02/21 05:22:15;;;;;;;13.67;3.03;;;;;;;4.59;86.08;98954.25;5011960;28;20207;-72
2022/02/21 05:24:40;;;;;;;13.13;2.57;;;;;;;4.55;86.55;98949.13;5000195;28;20184;-72
2022/02/21 05:27:06;;;;;;;14.23;3.70;;;;;;;4.49;86.52;98956.63;5007344;28;20199;-72
2022/02/21 05:29:31;;;;;;;18.63;2.93;;;;;;;4.50;85.52;98936.41;5000442;28;20179;-72
2022/02/21 05:31:57;;;;;;;16.80;3.37;;;;;;;4.47;86.07;98954.09;5006605;28;20199;-73
2022/02/21 05:34:23;;;;;;;15.17;2.70;;;;;;;4.44;86.28;98966.72;4992908;28;20231;-72
2022/02/21 05:36:49;;;;;;;15.00;3.07;;;;;;;4.44;86.13;98963.34;5011586;28;20237;-72
2022/02/21 05:39:14;;;;;;;16.53;3.23;;;;;;;4.39;86.34;98957.34;5009452;28;20230;-72
2022/02/21 05:41:39;;;;;;;20.53;3.40;;;;;;;4.42;85.94;98977.69;5008714;28;20222;-72
2022/02/21 05:44:05;;;;;;;19.23;3.17;;;;;;;4.38;85.81;98975.94;5011351;28;20195;-72
2022/02/21 05:46:30;;;;;;;13.27;3.40;;;;;;;4.39;85.26;98970.03;5006779;28;20203;-72
2022/02/21 05:48:56;;;;;;;12.47;3.73;;;;;;;4.43;84.24;98977.72;4990737;28;20832;-72
2022/02/21 05:51:21;;;;;;;19.27;3.47;;;;;;;4.43;84.59;98997.09;4991856;28;20576;-72
2022/02/21 05:53:47;;;;;;;12.07;2.40;;;;;;;4.40;84.04;98984.38;4996111;28;20188;-71
2022/02/21 05:56:13;;;;;;;12.33;2.80;;;;;;;4.31;84.27;98992.72;5011054;28;20183;-71
2022/02/21 05:58:40;;;;;;;12.70;2.63;;;;;;;4.26;84.90;98990.94;5006290;28;20238;-72
2022/02/21 06:01:05;;;;;;;11.87;3.00;;;;;;;4.20;85.08;99021.25;4998737;28;21028;-72
2022/02/21 06:03:31;;;;;;;19.03;3.43;;;;;;;4.18;85.63;99005.22;5001014;28;20255;-72
2022/02/21 06:05:57;;;;;;;11.03;2.53;;;;;;;4.12;85.91;99007.63;4991574;28;20282;-72
2022/02/21 06:08:23;;;;;;;17.50;3.27;;;;;;;4.01;87.04;99031.94;4991257;28;20180;-72
2022/02/21 06:10:49;;;;;;;12.03;2.73;;;;;;;4.00;87.15;99027.72;4991353;28;20212;-72
2022/02/21 06:13:15;;;;;;;9.63;2.50;;;;;;;4.01;87.11;99026.88;4991374;28;20195;-72
2022/02/21 06:15:40;;;;;;;10.00;1.73;;;;;;;4.01;87.58;99032.78;4991649;28;20547;-72
2022/02/21 06:18:05;;;;;;;8.60;2.33;;;;;;;4.01;88.18;99031.94;4991247;28;20184;-72
2022/02/21 06:20:31;;;;;;;8.80;2.20;;;;;;;3.99;88.37;99042.03;4991180;28;20575;-72
2022/02/21 06:22:56;;;;;;;9.23;2.40;;;;;;;4.04;88.28;99045.50;4991333;28;20557;-72
2022/02/21 06:25:22;;;;;;;11.43;2.77;;;;;;;4.06;88.26;99051.44;4991539;28;20220;-72
2022/02/21 06:27:47;;;;;;;19.73;3.13;;;;;;;4.08;88.89;99043.84;4999961;28;20192;-72
2022/02/21 06:30:13;;;;;;;9.10;1.77;;;;;;;4.04;89.20;99063.22;5008329;28;20234;-72
2022/02/21 06:32:38;;;;;;;14.10;2.80;;;;;;;4.05;88.74;99057.31;5009387;28;20179;-72
2022/02/21 06:35:04;;;;;;;12.67;3.10;;;;;;;4.10;88.97;99075.97;5003729;28;20568;-72
2022/02/21 06:37:29;;;;;;;15.70;2.97;;;;;;;4.16;87.31;99085.34;5007467;28;20806;-72
2022/02/21 06:39:55;;;;;;;14.03;3.33;;;;;;;4.13;86.79;99063.38;5010427;28;20787;-72
2022/02/21 06:42:20;;;;;;;10.30;2.50;;;;;;;4.13;86.06;99067.56;5008425;28;20204;-72
2022/02/21 06:44:45;;;;;;;16.23;3.00;;;;;;;4.08;86.16;99067.50;5003877;28;20182;-72
2022/02/21 06:47:11;;;;;;;15.13;3.20;;;;;;;4.02;86.56;99061.50;5009894;28;20602;-72
2022/02/21 06:49:36;;;;;;;16.57;3.77;;;;;;;3.97;86.14;99071.56;5010343;28;20711;-72
2022/02/21 06:52:02;;;;;;;15.97;3.27;;;;;;;3.93;86.46;99058.81;5008096;28;20681;-72
2022/02/21 06:54:27;;;;;;;9.97;2.60;;;;;;;4.00;85.49;99071.59;5010193;28;20682;-71
2022/02/21 06:56:53;;;;;;;14.07;2.83;;;;;;;3.97;85.42;99061.44;5010058;28;20187;-70
2022/02/21 06:59:18;;;;;;;10.27;2.67;;;;;;;3.98;85.36;99082.50;5009910;28;20194;-70
2022/02/21 07:01:43;;;;;;;12.00;2.60;;;;;;;3.92;85.42;99090.00;5010048;28;20305;-71
2022/02/21 07:04:08;;;;;;;14.13;2.40;;;;;;;3.87;85.16;99094.16;5010179;28;20237;-70
2022/02/21 07:06:35;;;;;;;10.80;2.27;;;;;;;3.81;85.41;99091.50;5008918;28;20198;-72
2022/02/21 07:09:03;;;;;;;10.27;2.07;;;;;;;3.76;86.30;99099.00;5009685;28;20190;-72
2022/02/21 07:11:28;;;;;;;5.97;1.77;;;;;;;3.70;86.94;99103.13;5000760;28;20195;-70
2022/02/21 07:13:53;;;;;;;16.77;2.33;;;;;;;3.75;87.15;99093.94;4990299;28;20860;-70
2022/02/21 07:16:19;;;;;;;10.30;2.27;;;;;;;3.73;87.17;99105.72;4989584;28;20553;-71
2022/02/21 07:18:44;;;;;;;12.03;3.17;;;;;;;3.84;86.28;99106.75;4991354;28;20849;-71
2022/02/21 07:21:09;;;;;;;16.07;3.37;;;;;;;3.89;86.32;99098.41;4988853;28;20259;-72
2022/02/21 07:23:38;;;;;;;14.67;3.20;;;;;;;3.95;85.65;99090.91;4997544;28;20204;-71
2022/02/21 07:26:04;;;;;;;17.83;3.10;;;;;;;4.08;86.59;99099.56;5009172;28;20599;-72
2022/02/21 07:28:30;;;;;;;14.63;3.43;;;;;;;4.27;85.71;99102.41;4996239;28;20705;-72
2022/02/21 07:30:55;;;;;;;15.73;3.80;;;;;;;4.35;85.15;99103.41;5018392;28;20221;-72
2022/02/21 07:33:20;;;;;;;17.97;3.30;;;;;;;4.37;85.38;99101.72;5012176;28;20175;-71
2022/02/21 07:35:46;;;;;;;14.03;3.53;;;;;;;4.35;85.03;99105.94;5009518;28;20195;-72
2022/02/21 07:38:12;;;;;;;14.77;3.70;;;;;;;4.40;84.65;99111.06;5009441;28;20191;-73
2022/02/21 07:40:37;;;;;;;18.07;3.83;;;;;;;4.47;84.07;99115.41;5005911;28;20215;-72
2022/02/21 07:43:02;;;;;;;17.90;3.87;;;;;;;4.39;84.38;99130.50;4993297;28;20211;-71
2022/02/21 07:45:28;;;;;;;14.10;3.33;;;;;;;4.32;84.12;99125.31;5009714;28;20194;-71
2022/02/21 07:47:56;;;;;;;11.07;3.10;;;;;;;4.28;85.59;99121.00;4988283;28;20227;-70
2022/02/21 07:50:22;;;;;;;17.83;3.57;;;;;;;4.31;86.68;99115.97;4989640;28;20212;-70
2022/02/21 07:52:49;;;;;;;19.30;3.43;;;;;;;4.24;86.93;99124.31;4989772;28;20198;-70
2022/02/21 07:55:15;;;;;;;11.33;3.20;;;;;;;4.30;86.26;99125.28;4989796;28;20215;-70
2022/02/21 07:57:42;;;;;;;17.17;3.30;;;;;;;4.65;86.26;99120.75;4989628;28;20196;-70
2022/02/21 08:00:10;;;;;;;14.30;3.53;;;;;;;4.96;84.62;99112.72;4989583;28;20214;-70
2022/02/21 08:02:39;;;;;;;14.87;3.77;;;;;;;5.11;84.56;99120.56;4992874;28;20211;-72
2022/02/21 08:05:06;;;;;;;17.27;3.43;;;;;;;5.06;84.41;99117.94;4988404;28;20302;-71
2022/02/21 08:07:32;;;;;;;14.10;3.13;;;;;;;4.64;84.32;99132.56;4989429;28;20195;-71
2022/02/21 08:09:57;;;;;;;13.33;3.60;;;;;;;4.64;84.47;99134.22;4989397;28;20667;-70
2022/02/21 08:12:23;;;;;;;15.87;3.23;;;;;;;4.55;83.80;99132.41;4988054;28;20184;-71
2022/02/21 08:14:48;;;;;;;17.03;3.50;;;;;;;4.55;83.30;99139.19;4991258;28;20571;-71
2022/02/21 08:17:13;;;;;;;17.37;3.23;;;;;;;4.56;84.12;99135.81;5008955;28;20654;-71
2022/02/21 08:19:39;;;;;;;16.20;3.40;;;;;;;4.49;83.15;99129.78;5007591;28;20183;-72
2022/02/21 08:22:04;;;;;;;13.77;2.97;;;;;;;4.46;83.18;99144.94;5008923;28;20257;-71
2022/02/21 08:24:29;;;;;;;14.63;3.23;;;;;;;4.48;82.67;99148.38;5009044;28;20199;-71
2022/02/21 08:26:55;;;;;;;16.13;2.90;;;;;;;4.48;83.28;99152.56;5010061;28;20198;-72
2022/02/21 08:29:20;;;;;;;13.10;2.93;;;;;;;4.48;83.32;99153.44;4998973;28;20224;-71
2022/02/21 08:31:47;;;;;;;21.70;3.37;;;;;;;4.49;83.99;99157.66;4994114;28;20209;-71
2022/02/21 08:34:14;;;;;;;16.83;3.00;;;;;;;4.34;86.57;99161.63;4992986;28;20662;-72
2022/02/21 08:36:40;;;;;;;14.30;3.23;;;;;;;4.13;87.15;99162.13;5012449;28;20206;-71
2022/02/21 08:39:06;;;;;;;13.63;2.80;;;;;;;3.82;89.05;99177.56;5012520;28;20199;-72
2022/02/21 08:41:31;;;;;;;10.67;2.40;;;;;;;3.65;91.05;99160.38;5012553;28;20308;-71
2022/02/21 08:43:57;;;;;;;11.43;2.87;;;;;;;3.58;92.46;99169.53;5007140;28;20567;-71
2022/02/21 08:46:22;;;;;;;16.00;3.23;;;;;;;3.51;91.66;99161.78;4992727;28;20195;-72
2022/02/21 08:48:47;;;;;;;14.67;2.97;;;;;;;3.53;92.15;99167.72;4991250;28;20588;-71
2022/02/21 08:51:12;;;;;;;17.10;3.80;;;;;;;3.63;92.02;99182.28;4993829;28;20234;-70
2022/02/21 08:53:38;;;;;;;15.83;2.70;;;;;;;3.64;92.13;99164.56;4992672;28;20198;-71
2022/02/21 08:56:04;;;;;;;17.60;3.33;;;;;;;3.64;91.41;99182.28;4993825;28;20200;-71
2022/02/21 08:58:29;;;;;;;16.77;3.10;;;;;;;3.71;91.63;99174.00;4994887;28;20198;-70
2022/02/21 09:00:54;;;;;;;11.03;2.90;;;;;;;3.76;91.71;99169.00;5012365;28;20211;-70
2022/02/21 09:03:19;;;;;;;13.30;3.13;;;;;;;3.76;91.84;99162.28;5010653;28;20266;-71
2022/02/21 09:05:45;;;;;;;9.80;3.00;;;;;;;3.80;90.80;99165.72;5012045;28;20230;-71
2022/02/21 09:08:10;;;;;;;16.60;3.83;;;;;;;3.77;90.89;99163.97;5010175;28;20278;-71
2022/02/21 09:10:35;;;;;;;15.27;3.67;;;;;;;3.79;91.11;99190.19;5010168;28;20214;-70
2022/02/21 09:13:02;;;;;;;9.27;2.50;;;;;;;3.79;91.09;99159.81;5010321;28;20187;-71
2022/02/21 09:15:28;;;;;;;13.57;3.23;;;;;;;3.84;91.08;99172.53;5011485;28;20246;-71
2022/02/21 09:17:53;;;;;;;9.57;2.50;;;;;;;3.90;90.80;99162.53;5011621;28;20676;-72
2022/02/21 09:20:19;;;;;;;17.07;3.13;;;;;;;3.96;90.51;99158.44;5011672;28;20211;-71
2022/02/21 09:22:45;;;;;;;12.40;2.63;;;;;;;4.01;90.38;99166.97;5011725;28;20297;-73
2022/02/21 09:25:11;;;;;;;11.03;2.87;;;;;;;4.00;89.38;99195.63;5006045;28;20202;-72
2022/02/21 09:27:36;;;;;;;11.17;2.30;;;;;;;4.01;90.98;99161.06;4978458;28;20235;-71
2022/02/21 09:30:04;;;;;;;9.37;2.37;;;;;;;4.02;91.40;99167.81;4990578;28;20188;-72
2022/02/21 09:32:30;;;;;;;5.83;2.03;;;;;;;3.91;91.14;99169.31;4991725;28;20187;-71
2022/02/21 09:34:55;;;;;;;7.13;2.13;;;;;;;3.89;91.78;99161.69;4997038;28;20190;-70
2022/02/21 09:37:21;;;;;;;12.93;2.70;;;;;;;4.02;91.45;99162.75;5008409;28;20402;-71
2022/02/21 09:39:46;;;;;;;11.17;3.10;;;;;;;4.20;91.40;99163.09;4998677;28;20191;-71
2022/02/21 09:42:12;;;;;;;13.03;3.43;;;;;;;4.26;91.39;99175.84;4991778;28;20211;-71
2022/02/21 09:44:37;;;;;;;11.60;2.80;;;;;;;4.24;89.96;99178.34;4991799;28;20563;-71
2022/02/21 09:47:03;;;;;;;8.80;2.43;;;;;;;4.66;89.40;99175.66;4991657;28;20216;-71
2022/02/21 09:49:29;;;;;;;12.53;2.87;;;;;;;4.68;89.22;99187.53;4991533;28;20217;-72
2022/02/21 09:51:55;;;;;;;13.30;3.30;;;;;;;4.72;88.68;99180.81;4991665;28;20207;-72
2022/02/21 09:54:21;;;;;;;11.43;2.83;;;;;;;4.64;88.63;99179.84;4991723;28;20194;-71
2022/02/21 09:56:48;;;;;;;14.73;2.90;;;;;;;4.73;88.75;99180.00;4991732;28;20191;-72
2022/02/21 09:59:14;;;;;;;12.73;3.30;;;;;;;4.89;88.24;99176.88;4990251;28;20884;-71
2022/02/21 10:01:42;;;;;;;9.23;3.03;;;;;;;4.83;87.39;99174.25;4991203;28;20219;-71
2022/02/21 10:04:13;;;;;;;14.40;3.67;;;;;;;4.78;86.18;99171.63;4991712;28;20678;-71
2022/02/21 10:06:39;;;;;;;12.40;3.00;;;;;;;4.87;85.89;99179.38;4991523;28;20238;-70
2022/02/21 10:09:09;;;;;;;10.20;3.57;;;;;;;5.02;85.21;99177.06;4991053;28;20231;-70
2022/02/21 10:11:41;;;;;;;16.47;3.67;;;;;;;5.04;83.83;99194.84;4989945;28;20238;-71
2022/02/21 10:14:12;;;;;;;13.63;2.93;;;;;;;5.24;84.05;99180.72;4991093;28;20195;-70
2022/02/21 10:16:39;;;;;;;17.43;3.20;;;;;;;5.52;83.36;99191.25;4991511;28;20207;-71
2022/02/21 10:19:09;;;;;;;13.80;2.90;;;;;;;5.72;81.43;99191.50;5003794;28;20183;-69
2022/02/21 10:22:11;;;;;;;15.07;3.33;;;;;;;6.88;76.35;99183.31;4990906;28;20226;-71
2022/02/21 10:24:47;;;;;;;12.47;3.17;;;;;;;5.82;80.84;99200.97;5000674;28;20187;-71
2022/02/21 10:27:22;;;;;;;11.30;2.90;;;;;;;6.13;80.99;99175.06;4988252;28;20187;-69
2022/02/21 10:30:04;;;;;;;9.73;3.07;;;;;;;5.92;82.00;99202.78;4990895;28;20249;-68
2022/02/21 10:32:31;;;;;;;15.40;3.70;;;;;;;5.55;81.02;99186.22;5006151;28;20186;-71
2022/02/21 10:35:09;;;;;;;14.60;2.63;;;;;;;5.64;81.51;99204.13;5010150;28;20215;-71
2022/02/21 10:37:42;;;;;;;13.57;3.93;;;;;;;5.71;82.06;99202.50;5009631;28;20210;-70
2022/02/21 10:40:11;;;;;;;17.13;3.00;;;;;;;5.67;81.58;99214.28;5010099;28;20203;-71
2022/02/21 10:42:37;;;;;;;10.67;2.83;;;;;;;5.64;81.96;99209.19;5008947;28;20223;-72
2022/02/21 10:45:13;;;;;;;15.60;4.10;;;;;;;5.51;81.42;99209.88;5010259;28;20797;-71
2022/02/21 10:47:39;;;;;;;15.00;2.90;;;;;;;5.47;80.55;99222.47;5005279;28;20273;-71
2022/02/21 10:50:05;;;;;;;13.53;3.83;;;;;;;5.39;81.28;99219.84;5005065;28;20223;-70
2022/02/21 10:52:35;;;;;;;15.03;3.30;;;;;;;5.35;81.32;99235.84;5001848;28;20195;-70
2022/02/21 10:55:00;;;;;;;10.73;3.40;;;;;;;5.35;81.75;99233.31;4990694;28;20213;-71
2022/02/21 10:57:27;;;;;;;11.67;3.03;;;;;;;5.34;81.55;99226.56;4990584;28;20793;-70
2022/02/21 10:59:53;;;;;;;15.10;3.47;;;;;;;5.33;80.68;99224.84;4990542;28;20647;-72
2022/02/21 11:02:20;;;;;;;15.77;3.00;;;;;;;5.37;81.40;99224.06;4990509;28;20212;-71
2022/02/21 11:04:46;;;;;;;17.13;2.93;;;;;;;5.34;81.09;99224.00;4990708;28;20188;-70
2022/02/21 11:07:13;;;;;;;12.50;3.17;;;;;;;5.35;81.43;99228.25;4989546;28;20697;-70
2022/02/21 11:09:40;;;;;;;12.67;2.93;;;;;;;5.42;83.00;99232.59;4988891;28;20282;-71
2022/02/21 11:12:06;;;;;;;13.97;3.10;;;;;;;5.49;82.16;99225.91;4989056;28;20211;-72
2022/02/21 11:14:33;;;;;;;11.90;3.17;;;;;;;5.50;81.70;99220.00;5011408;28;20192;-70
2022/02/21 11:17:01;;;;;;;12.33;2.83;;;;;;;5.58;82.25;99224.31;5012306;28;20201;-71
2022/02/21 11:19:27;;;;;;;11.03;3.37;;;;;;;5.45;80.99;99234.31;5009700;28;20214;-71
2022/02/21 11:21:52;;;;;;;14.40;2.90;;;;;;;5.40;81.69;99251.16;5005428;28;20214;-70
2022/02/21 11:24:24;;;;;;;12.10;2.97;;;;;;;5.45;82.87;99235.19;5018896;28;20755;-71
2022/02/21 11:27:02;;;;;;;7.87;2.33;;;;;;;5.36;83.24;99245.22;5009969;28;20194;-71
2022/02/21 11:29:41;;;;;;;7.90;2.20;;;;;;;5.33;82.57;99251.91;4992078;28;20179;-71
2022/02/21 11:32:06;;;;;;;14.00;2.77;;;;;;;5.34;82.80;99246.00;5029146;28;20202;-71